Tatvan, Turkey

9:07 AM EEST on August 02, 2014 (GMT +0300)
Mus Air Base (LTCK) Elev 4154 ft | 38.75 °N, 41.66 °E | Change Station

Current weather conditions updated 17 minutes ago

Clear
Clear
81 °F
Feels Like 81 °F
N
4
Wind Variable Wind from West

Today is forecast to be Cooler than yesterday.

Today
High -- | Low -- °F
--% Chance of Precip.
Yesterday
High -- | Low -- °F
Precip. -- in
5:13 AM 7:20 PM
Waxing Crescent, 32% visible
Pressure 29.89 in
Visibility -9999.0 miles
Clouds
Dew Point 36 °F
Humidity 20%
Rainfall 0.00 in
Snow Depth Not available.
UV Not available.
Pollen Not available.
Air Quality Not available.
Flu Activity Not available.
METAR LTCK 020550Z 27003KT 200V340 CAVOK 27/02 Q1012

More Conditions Fewer Conditions

Pressure 29.89 in
Visibility -9999.0 miles
Clouds
Dew Point 36 °F
Humidity 20%
Rainfall 0.00 in
Snow Depth Not available.
UV Not available.
Pollen Not available.
Air Quality Not available.
Flu Activity Not available.
METAR LTCK 020550Z 27003KT 200V340 CAVOK 27/02 Q1012

More Conditions Fewer Conditions

10-Day Weather Forecast

Almanac

Astronomy

Aug. 02, 2014 Rise Set
Actual Time 5:13 AM EEST 7:20 PM EEST
Civil Twilight 4:43 AM EEST 7:49 PM EEST
Nautical Twilight 4:07 AM EEST 8:25 PM EEST
Astronomical Twilight 3:28 AM EEST 9:04 PM EEST
Moon 11:08 AM EEST 10:31 PM EEST
Length of Visible Light 15h 05m
Length of Day
14h 07m
Tomorrow will be 1m 54s shorter.
Waxing Crescent, 32% of the Moon is Illuminated
Today
Waxing Crescent
Aug 3
First Quarter
Aug 10
Full
Aug 17
Last Quarter
Aug 25
New

Yesterday's Extremes

Country Highs Country Lows

Community

WunderPhotos

Upload Photos

1,739,830 photos uploaded!

Nearby

Snow Depth

Not available.

Earthquake Activity

City Distance Mag. Time & Date
No recent earthquake activity has been reported nearby.
Minimum magnitude displayed is 2.5.

Coastal Water Temperatures

Place Temperature
No Stations Reporting

Nearby Weather Stations

There are no personal weather stations in this area.